Time;durP1;ratioP1;P1;durP2;ratioP2;P2;SDS_P1;SDS_P2;PMS_P1;PMS_P2;Temp;Humidity;BMP_temperature;BMP_pressure;BME280_temperature;BME280_humidity;BME280_pressure;Samples;Min_cycle;Max_cycle;Signal;HPM_P1;HPM_P2
2021/03/06 00:01:17;;;;;;;;;;;17.50;42.10;;;;;;500522;237;2137;-46
2021/03/06 00:03:18;;;;;;;;;;;17.50;42.10;;;;;;500406;237;1033;-46
2021/03/06 00:05:20;;;;;;;;;;;17.60;42.00;;;;;;500421;237;1169;-46
2021/03/06 00:07:21;;;;;;;;;;;18.00;41.30;;;;;;500607;237;1621;-46
2021/03/06 00:09:22;;;;;;;;;;;18.50;40.10;;;;;;500577;237;1408;-46
2021/03/06 00:11:23;;;;;;;;;;;19.00;39.10;;;;;;500829;237;1068;-46
2021/03/06 00:13:25;;;;;;;;;;;19.20;38.50;;;;;;500411;237;1101;-46
2021/03/06 00:15:26;;;;;;;;;;;19.40;38.10;;;;;;500384;237;1370;-46
2021/03/06 00:17:27;;;;;;;;;;;19.50;37.70;;;;;;500471;237;1126;-46
2021/03/06 00:19:29;;;;;;;;;;;19.70;37.60;;;;;;500532;237;1101;-46
2021/03/06 00:21:30;;;;;;;;;;;19.80;37.40;;;;;;500564;237;2167;-46
2021/03/06 00:23:31;;;;;;;;;;;19.90;37.20;;;;;;500448;237;1046;-46
2021/03/06 00:25:32;;;;;;;;;;;19.90;37.00;;;;;;500708;237;1532;-46
2021/03/06 00:27:34;;;;;;;;;;;20.00;36.90;;;;;;500472;237;1217;-46
2021/03/06 00:29:35;;;;;;;;;;;20.10;36.80;;;;;;500517;237;1078;-46
2021/03/06 00:31:36;;;;;;;;;;;20.10;36.70;;;;;;500559;237;1234;-46
2021/03/06 00:33:38;;;;;;;;;;;20.10;36.50;;;;;;500435;237;1097;-46
2021/03/06 00:35:39;;;;;;;;;;;20.20;36.50;;;;;;500852;237;1075;-46
2021/03/06 00:37:40;;;;;;;;;;;20.20;36.40;;;;;;500457;237;1416;-46
2021/03/06 00:39:41;;;;;;;;;;;20.30;36.40;;;;;;500502;237;1037;-46
2021/03/06 00:41:43;;;;;;;;;;;20.30;36.40;;;;;;500274;237;2133;-46
2021/03/06 00:43:44;;;;;;;;;;;20.30;36.20;;;;;;500421;237;1069;-46
2021/03/06 00:45:45;;;;;;;;;;;20.40;36.20;;;;;;500551;237;1177;-46
2021/03/06 00:47:47;;;;;;;;;;;20.40;36.10;;;;;;500405;237;1192;-46
2021/03/06 00:49:48;;;;;;;;;;;20.50;36.00;;;;;;500388;237;1055;-46
2021/03/06 00:51:49;;;;;;;;;;;20.50;36.00;;;;;;500395;237;1178;-46
2021/03/06 00:53:50;;;;;;;;;;;20.50;35.90;;;;;;500427;237;1184;-46
2021/03/06 00:55:52;;;;;;;;;;;20.50;35.90;;;;;;500427;237;1504;-46
2021/03/06 00:57:53;;;;;;;;;;;20.60;35.90;;;;;;500473;237;1075;-46
2021/03/06 00:59:54;;;;;;;;;;;20.60;35.80;;;;;;500474;237;1007;-46
2021/03/06 01:01:55;;;;;;;;;;;20.60;35.80;;;;;;500400;237;2183;-46
2021/03/06 01:03:57;;;;;;;;;;;20.60;35.80;;;;;;500591;237;1070;-46
2021/03/06 01:05:58;;;;;;;;;;;20.70;35.70;;;;;;500858;237;1089;-46
2021/03/06 01:07:59;;;;;;;;;;;20.70;35.70;;;;;;500700;234;1322;-46
2021/03/06 01:10:01;;;;;;;;;;;20.70;35.60;;;;;;500409;237;1058;-46
2021/03/06 01:12:02;;;;;;;;;;;20.70;35.60;;;;;;500664;237;1054;-46
2021/03/06 01:14:03;;;;;;;;;;;20.70;35.50;;;;;;500686;237;1064;-46
2021/03/06 01:16:04;;;;;;;;;;;20.80;35.60;;;;;;500548;237;1202;-46
2021/03/06 01:18:06;;;;;;;;;;;20.70;35.50;;;;;;500407;237;1029;-46
2021/03/06 01:20:07;;;;;;;;;;;20.80;35.50;;;;;;500458;237;1035;-46
2021/03/06 01:22:08;;;;;;;;;;;20.80;35.50;;;;;;500404;237;2171;-46
2021/03/06 01:24:10;;;;;;;;;;;20.80;35.40;;;;;;500485;237;1233;-46
2021/03/06 01:26:11;;;;;;;;;;;20.80;35.40;;;;;;500371;237;1116;-46
2021/03/06 01:28:12;;;;;;;;;;;20.90;35.40;;;;;;500410;237;1017;-46
2021/03/06 01:30:13;;;;;;;;;;;20.90;35.40;;;;;;500673;237;1076;-46
2021/03/06 01:32:15;;;;;;;;;;;20.90;35.30;;;;;;500802;237;1128;-46
2021/03/06 01:34:16;;;;;;;;;;;20.90;35.30;;;;;;500484;237;1110;-46
2021/03/06 01:36:17;;;;;;;;;;;21.00;35.30;;;;;;500389;237;1026;-46
2021/03/06 01:38:19;;;;;;;;;;;21.00;35.30;;;;;;500665;237;1313;-46
2021/03/06 01:40:20;;;;;;;;;;;21.00;35.30;;;;;;500666;237;1048;-46
2021/03/06 01:42:21;;;;;;;;;;;21.00;35.20;;;;;;500793;237;2183;-46
2021/03/06 01:44:22;;;;;;;;;;;21.00;35.20;;;;;;500440;237;1060;-46
2021/03/06 01:46:24;;;;;;;;;;;21.00;35.10;;;;;;500588;237;1062;-46
2021/03/06 01:48:25;;;;;;;;;;;21.00;35.10;;;;;;500829;237;1118;-46
2021/03/06 01:50:26;;;;;;;;;;;21.00;35.10;;;;;;500499;237;1182;-46
2021/03/06 01:52:28;;;;;;;;;;;21.00;35.10;;;;;;500519;237;1350;-46
2021/03/06 01:54:29;;;;;;;;;;;21.10;35.10;;;;;;500442;237;1150;-46
2021/03/06 01:56:30;;;;;;;;;;;21.10;35.10;;;;;;500561;237;1117;-46
2021/03/06 01:58:31;;;;;;;;;;;21.10;35.10;;;;;;500488;237;1116;-46
2021/03/06 02:00:33;;;;;;;;;;;21.10;35.00;;;;;;500734;237;946;-46
2021/03/06 02:02:34;;;;;;;;;;;21.10;35.00;;;;;;500383;237;2176;-46
2021/03/06 02:04:35;;;;;;;;;;;21.10;35.00;;;;;;500612;237;1071;-46
2021/03/06 02:06:37;;;;;;;;;;;21.10;35.00;;;;;;500380;237;1189;-46
2021/03/06 02:08:38;;;;;;;;;;;21.10;35.00;;;;;;500653;237;1220;-46
2021/03/06 02:10:39;;;;;;;;;;;21.20;35.00;;;;;;500695;237;1033;-46
2021/03/06 02:12:40;;;;;;;;;;;21.10;35.00;;;;;;500451;237;1059;-46
2021/03/06 02:14:42;;;;;;;;;;;21.20;35.00;;;;;;500742;237;1138;-46
2021/03/06 02:16:43;;;;;;;;;;;21.20;35.00;;;;;;500343;237;1045;-46
2021/03/06 02:18:44;;;;;;;;;;;21.20;34.90;;;;;;500600;237;1082;-46
2021/03/06 02:20:46;;;;;;;;;;;21.20;34.90;;;;;;500793;237;1050;-46
2021/03/06 02:22:47;;;;;;;;;;;21.20;34.90;;;;;;500580;237;2184;-46
2021/03/06 02:24:48;;;;;;;;;;;21.20;34.90;;;;;;500461;237;1201;-46
2021/03/06 02:26:51;;;;;;;;;;;21.20;34.90;;;;;;500732;237;1038;-46
2021/03/06 02:28:52;;;;;;;;;;;21.20;34.90;;;;;;500660;237;1007;-46
2021/03/06 02:30:53;;;;;;;;;;;21.20;34.80;;;;;;500376;237;1072;-46
2021/03/06 02:32:55;;;;;;;;;;;21.30;34.90;;;;;;500432;237;1037;-46
2021/03/06 02:34:56;;;;;;;;;;;21.20;34.80;;;;;;500843;237;1027;-46
2021/03/06 02:36:57;;;;;;;;;;;21.30;34.80;;;;;;500400;237;1063;-46
2021/03/06 02:38:58;;;;;;;;;;;21.30;34.80;;;;;;500697;237;1160;-46
2021/03/06 02:41:00;;;;;;;;;;;21.30;34.80;;;;;;500383;237;1054;-46
2021/03/06 02:43:01;;;;;;;;;;;21.30;34.80;;;;;;500640;237;2141;-46
2021/03/06 02:45:02;;;;;;;;;;;21.30;34.80;;;;;;500395;237;1036;-46
2021/03/06 02:47:03;;;;;;;;;;;21.30;34.80;;;;;;500358;237;1132;-46
2021/03/06 02:49:05;;;;;;;;;;;21.30;34.70;;;;;;500841;237;1074;-46
2021/03/06 02:51:06;;;;;;;;;;;21.30;34.80;;;;;;500486;237;1053;-46
2021/03/06 02:53:07;;;;;;;;;;;21.30;34.80;;;;;;500836;237;1306;-46
2021/03/06 02:55:09;;;;;;;;;;;21.30;34.70;;;;;;500473;237;1170;-46
2021/03/06 02:57:10;;;;;;;;;;;21.30;34.80;;;;;;500340;237;1297;-46
2021/03/06 02:59:11;;;;;;;;;;;21.30;34.70;;;;;;500412;237;1002;-46
2021/03/06 03:01:12;;;;;;;;;;;21.30;34.70;;;;;;500662;237;1538;-46
2021/03/06 03:03:14;;;;;;;;;;;21.30;34.70;;;;;;500709;237;2180;-46
2021/03/06 03:05:15;;;;;;;;;;;21.30;34.70;;;;;;500705;237;1058;-46
2021/03/06 03:07:16;;;;;;;;;;;21.30;34.70;;;;;;500393;237;1324;-46
2021/03/06 03:09:18;;;;;;;;;;;21.40;34.70;;;;;;500449;237;1167;-46
2021/03/06 03:11:19;;;;;;;;;;;21.40;34.70;;;;;;500383;237;1170;-46
2021/03/06 03:13:20;;;;;;;;;;;21.40;34.70;;;;;;500346;237;1036;-46
2021/03/06 03:15:22;;;;;;;;;;;21.40;34.70;;;;;;500555;237;1067;-46
2021/03/06 03:17:23;;;;;;;;;;;21.40;34.70;;;;;;500347;237;1138;-46
2021/03/06 03:19:24;;;;;;;;;;;21.40;34.70;;;;;;500771;237;1044;-46
2021/03/06 03:21:25;;;;;;;;;;;21.40;34.70;;;;;;500370;237;1074;-46
2021/03/06 03:23:27;;;;;;;;;;;21.40;34.70;;;;;;500665;237;2192;-46
2021/03/06 03:25:28;;;;;;;;;;;21.40;34.70;;;;;;500432;237;1150;-46
2021/03/06 03:27:29;;;;;;;;;;;21.40;34.70;;;;;;500440;237;1085;-46
2021/03/06 03:29:31;;;;;;;;;;;21.40;34.70;;;;;;500420;237;1021;-46
2021/03/06 03:31:32;;;;;;;;;;;21.40;34.70;;;;;;500345;237;1054;-46
2021/03/06 03:33:33;;;;;;;;;;;21.40;34.70;;;;;;500464;237;1072;-46
2021/03/06 03:35:34;;;;;;;;;;;21.40;34.70;;;;;;500605;237;1037;-46
2021/03/06 03:37:36;;;;;;;;;;;21.40;34.70;;;;;;500465;237;1050;-46
2021/03/06 03:39:37;;;;;;;;;;;21.40;34.70;;;;;;500396;234;1266;-46
2021/03/06 03:41:38;;;;;;;;;;;21.40;34.70;;;;;;500410;237;1056;-45
2021/03/06 03:43:39;;;;;;;;;;;21.40;34.70;;;;;;500618;237;2187;-46
2021/03/06 03:45:41;;;;;;;;;;;21.40;34.70;;;;;;500441;237;1049;-46
2021/03/06 03:47:42;;;;;;;;;;;21.40;34.70;;;;;;500418;237;1046;-46
2021/03/06 03:49:43;;;;;;;;;;;21.40;34.70;;;;;;500385;237;1087;-46
2021/03/06 03:51:45;;;;;;;;;;;21.40;34.60;;;;;;500462;237;1036;-46
2021/03/06 03:53:46;;;;;;;;;;;21.40;34.70;;;;;;500414;237;1061;-46
2021/03/06 03:55:47;;;;;;;;;;;21.50;34.70;;;;;;500439;237;1310;-46
2021/03/06 03:57:48;;;;;;;;;;;21.40;34.60;;;;;;500732;237;1157;-46
2021/03/06 03:59:50;;;;;;;;;;;21.50;34.70;;;;;;500524;237;1071;-46
2021/03/06 04:01:51;;;;;;;;;;;21.50;34.70;;;;;;500456;237;1126;-46
2021/03/06 04:03:52;;;;;;;;;;;21.50;34.60;;;;;;500434;237;2108;-46
2021/03/06 04:05:54;;;;;;;;;;;21.50;34.70;;;;;;500368;237;1166;-46
2021/03/06 04:07:55;;;;;;;;;;;21.40;34.70;;;;;;500400;237;1108;-46
2021/03/06 04:09:56;;;;;;;;;;;21.50;34.70;;;;;;500415;237;1155;-46
2021/03/06 04:11:57;;;;;;;;;;;21.50;34.60;;;;;;500645;237;1056;-46
2021/03/06 04:13:59;;;;;;;;;;;21.40;34.60;;;;;;500363;237;1044;-46
2021/03/06 04:16:00;;;;;;;;;;;21.50;34.60;;;;;;500419;237;1199;-46
2021/03/06 04:18:01;;;;;;;;;;;21.50;34.60;;;;;;500736;237;1059;-46
2021/03/06 04:20:03;;;;;;;;;;;21.50;34.70;;;;;;500784;237;1041;-46
2021/03/06 04:22:05;;;;;;;;;;;21.50;34.70;;;;;;500782;237;1104;-46
2021/03/06 04:24:06;;;;;;;;;;;21.50;34.60;;;;;;500413;237;2176;-46
2021/03/06 04:26:07;;;;;;;;;;;21.50;34.70;;;;;;500458;237;1120;-46
2021/03/06 04:28:08;;;;;;;;;;;21.50;34.60;;;;;;500369;237;1042;-46
2021/03/06 04:30:10;;;;;;;;;;;21.50;34.60;;;;;;500454;237;1116;-46
2021/03/06 04:32:11;;;;;;;;;;;21.50;34.60;;;;;;500324;237;1277;-46
2021/03/06 04:34:12;;;;;;;;;;;21.50;34.50;;;;;;500693;237;1029;-46
2021/03/06 04:36:14;;;;;;;;;;;21.50;34.60;;;;;;500479;237;1036;-46
2021/03/06 04:38:15;;;;;;;;;;;21.50;34.60;;;;;;500466;237;1082;-46
2021/03/06 04:40:16;;;;;;;;;;;21.50;34.60;;;;;;500418;237;1327;-46
2021/03/06 04:42:18;;;;;;;;;;;21.50;34.50;;;;;;500473;237;992;-46
2021/03/06 04:44:19;;;;;;;;;;;21.60;34.60;;;;;;500431;237;2105;-46
2021/03/06 04:46:21;;;;;;;;;;;21.60;34.50;;;;;;500341;237;1049;-46
2021/03/06 04:48:21;;;;;;;;;;;21.50;34.50;;;;;;500448;237;1355;-46
2021/03/06 04:50:23;;;;;;;;;;;21.60;34.50;;;;;;500478;237;951;-46
2021/03/06 04:52:24;;;;;;;;;;;21.60;34.50;;;;;;500565;237;1099;-46
2021/03/06 04:54:25;;;;;;;;;;;21.60;34.50;;;;;;500453;237;1119;-46
2021/03/06 04:56:27;;;;;;;;;;;21.60;34.50;;;;;;500399;237;1192;-46
2021/03/06 04:58:28;;;;;;;;;;;21.50;34.50;;;;;;500576;237;1119;-46
2021/03/06 05:00:31;;;;;;;;;;;21.60;34.50;;;;;;500374;237;1115;-46
2021/03/06 05:02:30;;;;;;;;;;;21.60;34.50;;;;;;500409;237;1856;-46
2021/03/06 05:04:32;;;;;;;;;;;21.60;34.50;;;;;;500537;237;2105;-46
2021/03/06 05:06:33;;;;;;;;;;;21.60;34.40;;;;;;500670;237;1161;-46
2021/03/06 05:08:34;;;;;;;;;;;21.60;34.40;;;;;;500390;237;1195;-46
2021/03/06 05:10:35;;;;;;;;;;;21.60;34.50;;;;;;500428;237;1113;-46
2021/03/06 05:12:37;;;;;;;;;;;21.60;34.50;;;;;;500481;237;1156;-46
2021/03/06 05:14:38;;;;;;;;;;;21.60;34.50;;;;;;500887;237;1024;-46
2021/03/06 05:16:39;;;;;;;;;;;21.60;34.40;;;;;;500447;237;1152;-46
2021/03/06 05:18:42;;;;;;;;;;;21.60;34.50;;;;;;500419;237;1092;-46
2021/03/06 05:20:42;;;;;;;;;;;21.60;34.50;;;;;;500386;237;2196;-46
2021/03/06 05:22:43;;;;;;;;;;;21.60;34.40;;;;;;500354;237;2196;-46
2021/03/06 05:24:45;;;;;;;;;;;21.60;34.40;;;;;;500403;237;1058;-46
2021/03/06 05:26:46;;;;;;;;;;;21.60;34.40;;;;;;500344;237;1271;-46
2021/03/06 05:28:47;;;;;;;;;;;21.60;34.40;;;;;;500505;237;964;-46
2021/03/06 05:30:49;;;;;;;;;;;21.60;34.40;;;;;;500361;237;1086;-46
2021/03/06 05:32:50;;;;;;;;;;;21.60;34.40;;;;;;500353;237;1128;-46
2021/03/06 05:34:51;;;;;;;;;;;21.60;34.40;;;;;;500394;237;1080;-46
2021/03/06 05:36:52;;;;;;;;;;;21.60;34.40;;;;;;500420;237;1352;-46
2021/03/06 05:38:54;;;;;;;;;;;21.60;34.40;;;;;;500402;237;1019;-46
2021/03/06 05:40:55;;;;;;;;;;;21.60;34.40;;;;;;500567;237;1124;-46
2021/03/06 05:42:56;;;;;;;;;;;21.60;34.40;;;;;;500437;237;2199;-46
2021/03/06 05:44:58;;;;;;;;;;;21.70;34.40;;;;;;500544;237;1109;-46
2021/03/06 05:46:59;;;;;;;;;;;21.70;34.40;;;;;;500689;237;1016;-46
2021/03/06 05:49:00;;;;;;;;;;;21.70;34.40;;;;;;500585;237;1065;-46
2021/03/06 05:51:01;;;;;;;;;;;21.60;34.40;;;;;;500765;237;1119;-46
2021/03/06 05:53:03;;;;;;;;;;;21.60;34.40;;;;;;500470;237;1221;-46
2021/03/06 05:55:04;;;;;;;;;;;21.60;34.40;;;;;;500393;237;1150;-46
2021/03/06 05:57:05;;;;;;;;;;;21.60;34.40;;;;;;500449;237;1380;-46
2021/03/06 05:59:06;;;;;;;;;;;21.70;34.40;;;;;;500452;237;1067;-46
2021/03/06 06:01:08;;;;;;;;;;;21.70;34.30;;;;;;500388;237;1127;-46
2021/03/06 06:03:09;;;;;;;;;;;21.70;34.30;;;;;;500322;237;2184;-46
2021/03/06 06:05:10;;;;;;;;;;;21.70;34.30;;;;;;500506;237;1075;-46
2021/03/06 06:07:12;;;;;;;;;;;21.70;34.30;;;;;;500315;237;1192;-46
2021/03/06 06:09:13;;;;;;;;;;;21.70;34.40;;;;;;500611;237;989;-46
2021/03/06 06:11:14;;;;;;;;;;;21.70;34.30;;;;;;500408;237;1414;-46
2021/03/06 06:13:16;;;;;;;;;;;21.70;34.30;;;;;;500716;237;1020;-46
2021/03/06 06:15:19;;;;;;;;;;;21.70;34.30;;;;;;500373;237;1089;-46
2021/03/06 06:17:18;;;;;;;;;;;21.60;34.30;;;;;;500295;237;2186;-46
2021/03/06 06:19:19;;;;;;;;;;;21.70;34.30;;;;;;500504;237;1062;-46
2021/03/06 06:21:21;;;;;;;;;;;21.60;34.30;;;;;;500367;237;1129;-46
2021/03/06 06:23:22;;;;;;;;;;;21.70;34.30;;;;;;500552;237;2121;-46
2021/03/06 06:25:23;;;;;;;;;;;21.70;34.30;;;;;;500760;237;972;-46
2021/03/06 06:27:24;;;;;;;;;;;21.70;34.30;;;;;;500292;237;1187;-46
2021/03/06 06:29:26;;;;;;;;;;;21.70;34.30;;;;;;500590;237;1121;-46
2021/03/06 06:31:27;;;;;;;;;;;21.70;34.30;;;;;;500340;237;1476;-46
2021/03/06 06:33:28;;;;;;;;;;;21.70;34.30;;;;;;500333;237;1096;-46
2021/03/06 06:35:30;;;;;;;;;;;21.70;34.30;;;;;;500747;237;1031;-46
2021/03/06 06:37:31;;;;;;;;;;;21.70;34.30;;;;;;500421;237;1498;-46
2021/03/06 06:39:32;;;;;;;;;;;21.70;34.30;;;;;;500727;237;1051;-46
2021/03/06 06:41:34;;;;;;;;;;;21.70;34.30;;;;;;500493;237;1166;-46
2021/03/06 06:43:35;;;;;;;;;;;21.70;34.30;;;;;;500463;237;2128;-46
2021/03/06 06:45:36;;;;;;;;;;;21.70;34.30;;;;;;500348;237;1059;-46
2021/03/06 06:47:37;;;;;;;;;;;21.60;34.30;;;;;;500521;237;1070;-46
2021/03/06 06:49:39;;;;;;;;;;;21.70;34.30;;;;;;500617;237;1077;-46
2021/03/06 06:51:40;;;;;;;;;;;21.70;34.30;;;;;;500447;237;1009;-46
2021/03/06 06:53:41;;;;;;;;;;;21.70;34.30;;;;;;500554;237;1170;-46
2021/03/06 06:55:43;;;;;;;;;;;21.70;34.30;;;;;;500521;237;1127;-46
2021/03/06 06:57:44;;;;;;;;;;;21.70;34.20;;;;;;500429;237;2520;-46
2021/03/06 06:59:45;;;;;;;;;;;21.70;34.30;;;;;;500373;237;1070;-46
2021/03/06 07:01:46;;;;;;;;;;;21.70;34.30;;;;;;500365;237;1124;-46
2021/03/06 07:03:48;;;;;;;;;;;21.70;34.30;;;;;;500576;237;2132;-46
2021/03/06 07:05:49;;;;;;;;;;;21.70;34.30;;;;;;500363;237;1127;-46
2021/03/06 07:07:50;;;;;;;;;;;21.70;34.20;;;;;;500262;237;1167;-46
2021/03/06 07:09:51;;;;;;;;;;;21.70;34.30;;;;;;500586;237;1120;-46
2021/03/06 07:11:53;;;;;;;;;;;21.70;34.30;;;;;;500375;237;1328;-46
2021/03/06 07:13:54;;;;;;;;;;;21.70;34.30;;;;;;500688;237;1075;-46
2021/03/06 07:15:56;;;;;;;;;;;21.70;34.30;;;;;;500323;237;1129;-46
2021/03/06 07:17:57;;;;;;;;;;;21.70;34.30;;;;;;500664;237;2073;-46
2021/03/06 07:19:58;;;;;;;;;;;21.70;34.30;;;;;;500353;237;1085;-46
2021/03/06 07:21:59;;;;;;;;;;;21.70;34.30;;;;;;500531;237;1326;-46
2021/03/06 07:24:00;;;;;;;;;;;21.70;34.20;;;;;;500399;237;2144;-46
2021/03/06 07:26:02;;;;;;;;;;;21.70;34.20;;;;;;500434;237;1119;-46
2021/03/06 07:28:03;;;;;;;;;;;21.70;34.30;;;;;;500319;237;1189;-46
2021/03/06 07:30:04;;;;;;;;;;;21.70;34.30;;;;;;500580;237;1128;-46
2021/03/06 07:32:06;;;;;;;;;;;21.70;34.20;;;;;;500405;237;1209;-46
2021/03/06 07:34:07;;;;;;;;;;;21.70;34.20;;;;;;500504;237;1089;-46
2021/03/06 07:36:08;;;;;;;;;;;21.70;34.30;;;;;;500373;237;1183;-46
2021/03/06 07:38:09;;;;;;;;;;;21.70;34.30;;;;;;500340;237;1102;-46
2021/03/06 07:40:11;;;;;;;;;;;21.70;34.20;;;;;;500393;237;1039;-46
2021/03/06 07:42:12;;;;;;;;;;;21.70;34.20;;;;;;500395;237;1193;-46
2021/03/06 07:44:13;;;;;;;;;;;21.70;34.20;;;;;;500386;237;2136;-46
2021/03/06 07:46:15;;;;;;;;;;;21.70;34.20;;;;;;500313;237;1155;-46
2021/03/06 07:48:16;;;;;;;;;;;21.70;34.20;;;;;;500574;237;1129;-46
2021/03/06 07:50:17;;;;;;;;;;;21.70;34.20;;;;;;500538;237;1027;-46
2021/03/06 07:52:18;;;;;;;;;;;21.70;34.20;;;;;;500383;237;1189;-46
2021/03/06 07:54:20;;;;;;;;;;;21.70;34.20;;;;;;500327;237;1073;-46
2021/03/06 07:56:21;;;;;;;;;;;21.80;34.20;;;;;;500328;237;1070;-46
2021/03/06 07:58:22;;;;;;;;;;;21.70;34.20;;;;;;500402;237;1248;-46
2021/03/06 08:00:23;;;;;;;;;;;21.70;34.20;;;;;;500417;237;1039;-46
2021/03/06 08:02:25;;;;;;;;;;;21.70;34.20;;;;;;500461;237;1446;-46
2021/03/06 08:04:26;;;;;;;;;;;21.80;34.20;;;;;;500328;237;2140;-46
2021/03/06 08:06:28;;;;;;;;;;;21.80;34.20;;;;;;500332;237;1103;-46
2021/03/06 08:08:29;;;;;;;;;;;21.80;34.20;;;;;;500276;237;1049;-46
2021/03/06 08:10:30;;;;;;;;;;;21.80;34.20;;;;;;500437;237;1060;-46
2021/03/06 08:12:32;;;;;;;;;;;21.80;34.20;;;;;;500420;237;1171;-46
2021/03/06 08:14:33;;;;;;;;;;;21.80;34.20;;;;;;500663;237;1075;-46
2021/03/06 08:16:34;;;;;;;;;;;21.70;34.20;;;;;;500337;237;1059;-46
2021/03/06 08:18:35;;;;;;;;;;;21.80;34.20;;;;;;500338;237;1038;-46
2021/03/06 08:20:37;;;;;;;;;;;21.80;34.20;;;;;;500360;237;1055;-46
2021/03/06 08:22:38;;;;;;;;;;;21.80;34.20;;;;;;500345;237;1101;-46
2021/03/06 08:24:39;;;;;;;;;;;21.80;34.20;;;;;;500427;237;2196;-46
2021/03/06 08:26:41;;;;;;;;;;;21.80;34.20;;;;;;500313;237;1013;-46
2021/03/06 08:28:42;;;;;;;;;;;21.80;34.00;;;;;;500568;237;1197;-46
2021/03/06 08:30:43;;;;;;;;;;;21.30;34.80;;;;;;500427;237;1068;-46
2021/03/06 08:32:45;;;;;;;;;;;20.70;36.00;;;;;;500350;237;1158;-46
2021/03/06 08:34:46;;;;;;;;;;;20.20;36.80;;;;;;500432;237;1126;-46
2021/03/06 08:36:47;;;;;;;;;;;19.80;37.60;;;;;;500344;237;1162;-45
2021/03/06 08:38:49;;;;;;;;;;;19.60;38.10;;;;;;500489;237;1138;-46
2021/03/06 08:40:50;;;;;;;;;;;19.40;38.50;;;;;;500468;237;1048;-46
2021/03/06 08:42:51;;;;;;;;;;;19.20;38.80;;;;;;500341;237;1184;-46
2021/03/06 08:44:53;;;;;;;;;;;19.10;39.00;;;;;;500468;237;2176;-45
2021/03/06 08:46:54;;;;;;;;;;;19.10;39.10;;;;;;500263;237;1069;-46
2021/03/06 08:48:55;;;;;;;;;;;19.00;39.30;;;;;;500546;237;1058;-45
2021/03/06 08:50:56;;;;;;;;;;;18.90;39.40;;;;;;500630;237;1142;-45
2021/03/06 08:52:58;;;;;;;;;;;18.80;39.50;;;;;;500261;237;1082;-46
2021/03/06 08:54:59;;;;;;;;;;;18.80;39.60;;;;;;500492;237;1061;-46
2021/03/06 08:57:00;;;;;;;;;;;18.70;39.70;;;;;;500349;237;1112;-45
2021/03/06 08:59:02;;;;;;;;;;;18.70;39.70;;;;;;500540;237;1184;-45
2021/03/06 09:01:05;;;;;;;;;;;18.60;39.80;;;;;;500488;237;1157;-45
2021/03/06 09:03:04;;;;;;;;;;;18.60;39.80;;;;;;500321;237;2122;-45
2021/03/06 09:05:06;;;;;;;;;;;18.60;39.90;;;;;;500327;237;2136;-46
2021/03/06 09:07:07;;;;;;;;;;;18.50;40.00;;;;;;500390;237;1096;-46
2021/03/06 09:09:09;;;;;;;;;;;18.50;40.00;;;;;;500339;237;1165;-46
2021/03/06 09:11:10;;;;;;;;;;;18.50;40.00;;;;;;500653;237;1436;-46
2021/03/06 09:13:14;;;;;;;;;;;18.40;40.10;;;;;;500339;237;1567;-46
2021/03/06 09:15:13;;;;;;;;;;;18.40;40.20;;;;;;500367;237;1506;-46
2021/03/06 09:17:14;;;;;;;;;;;18.40;40.10;;;;;;500382;237;1208;-46
2021/03/06 09:19:16;;;;;;;;;;;18.40;40.10;;;;;;500891;237;1022;-46
2021/03/06 09:21:20;;;;;;;;;;;18.40;40.10;;;;;;500464;237;1178;-46
2021/03/06 09:23:18;;;;;;;;;;;18.40;40.20;;;;;;500345;237;1423;-46
2021/03/06 09:25:20;;;;;;;;;;;18.30;40.20;;;;;;500682;237;2152;-46
2021/03/06 09:27:21;;;;;;;;;;;18.30;40.30;;;;;;500313;237;1962;-46
2021/03/06 09:29:22;;;;;;;;;;;18.20;40.30;;;;;;500500;237;1147;-45
2021/03/06 09:31:26;;;;;;;;;;;18.20;40.30;;;;;;500305;237;971;-45
2021/03/06 09:33:25;;;;;;;;;;;18.20;40.30;;;;;;500318;238;1388;-46
2021/03/06 09:35:27;;;;;;;;;;;18.20;40.30;;;;;;500539;237;1105;-46
2021/03/06 09:37:28;;;;;;;;;;;18.20;40.30;;;;;;500307;237;1060;-46
2021/03/06 09:39:29;;;;;;;;;;;18.20;40.30;;;;;;500291;237;1085;-46
2021/03/06 09:41:30;;;;;;;;;;;18.20;40.30;;;;;;500326;237;1116;-46
2021/03/06 09:43:32;;;;;;;;;;;18.10;40.30;;;;;;500313;237;1278;-46
2021/03/06 09:45:33;;;;;;;;;;;18.20;40.40;;;;;;500429;237;2192;-45
2021/03/06 09:47:34;;;;;;;;;;;18.20;40.30;;;;;;500479;237;1070;-46
2021/03/06 09:49:35;;;;;;;;;;;18.10;40.30;;;;;;500410;237;1114;-46
2021/03/06 09:51:37;;;;;;;;;;;18.10;40.30;;;;;;500304;237;1073;-45
2021/03/06 09:53:38;;;;;;;;;;;18.10;40.30;;;;;;500645;237;1040;-45
2021/03/06 09:55:39;;;;;;;;;;;18.10;40.30;;;;;;500826;237;1074;-46
2021/03/06 09:57:41;;;;;;;;;;;18.10;40.40;;;;;;500362;237;1026;-46
2021/03/06 09:59:42;;;;;;;;;;;18.10;40.40;;;;;;500350;237;1178;-45
2021/03/06 10:01:43;;;;;;;;;;;18.00;40.40;;;;;;500290;237;1036;-45
2021/03/06 10:03:45;;;;;;;;;;;18.10;40.30;;;;;;500351;237;982;-46
2021/03/06 10:05:46;;;;;;;;;;;18.00;40.30;;;;;;500455;237;2191;-46
2021/03/06 10:07:47;;;;;;;;;;;18.00;40.30;;;;;;500289;237;1126;-46
2021/03/06 10:09:48;;;;;;;;;;;18.00;40.40;;;;;;500514;237;1122;-45
2021/03/06 10:11:50;;;;;;;;;;;17.90;40.40;;;;;;500278;237;1253;-45
2021/03/06 10:13:51;;;;;;;;;;;17.90;40.40;;;;;;500811;237;1120;-46
2021/03/06 10:15:52;;;;;;;;;;;17.90;40.40;;;;;;500429;237;1109;-46
2021/03/06 10:17:53;;;;;;;;;;;17.90;40.40;;;;;;500320;237;1195;-46
2021/03/06 10:19:55;;;;;;;;;;;17.90;40.30;;;;;;500376;237;1079;-46
2021/03/06 10:21:56;;;;;;;;;;;17.90;40.40;;;;;;500492;237;1191;-45
2021/03/06 10:23:57;;;;;;;;;;;18.00;40.30;;;;;;500772;237;1017;-45
2021/03/06 10:25:59;;;;;;;;;;;18.40;39.60;;;;;;500388;237;2181;-46
2021/03/06 10:28:00;;;;;;;;;;;18.80;38.60;;;;;;500285;237;1239;-46
2021/03/06 10:30:01;;;;;;;;;;;19.10;37.80;;;;;;500297;237;1156;-45
2021/03/06 10:32:02;;;;;;;;;;;19.40;37.40;;;;;;500293;237;1085;-46
2021/03/06 10:34:04;;;;;;;;;;;19.60;37.00;;;;;;500395;237;1075;-46
2021/03/06 10:36:05;;;;;;;;;;;19.70;36.80;;;;;;500298;237;1110;-46
2021/03/06 10:38:06;;;;;;;;;;;19.90;36.50;;;;;;500505;237;1068;-46
2021/03/06 10:40:09;;;;;;;;;;;19.90;36.30;;;;;;500297;237;1029;-45
2021/03/06 10:42:09;;;;;;;;;;;20.00;36.20;;;;;;500290;237;1835;-46
2021/03/06 10:44:10;;;;;;;;;;;20.00;36.10;;;;;;500485;237;1017;-46
2021/03/06 10:46:11;;;;;;;;;;;20.00;36.00;;;;;;500324;237;2191;-46
2021/03/06 10:48:13;;;;;;;;;;;20.10;35.90;;;;;;500663;237;1153;-46
2021/03/06 10:50:14;;;;;;;;;;;20.20;35.80;;;;;;500514;237;1257;-45
2021/03/06 10:52:15;;;;;;;;;;;20.20;35.70;;;;;;500795;237;1048;-46
2021/03/06 10:54:18;;;;;;;;;;;20.30;35.60;;;;;;500271;237;1082;-46
2021/03/06 10:56:18;;;;;;;;;;;20.30;35.50;;;;;;500285;237;1476;-46
2021/03/06 10:58:19;;;;;;;;;;;20.30;35.50;;;;;;500565;237;1079;-46
2021/03/06 11:00:20;;;;;;;;;;;20.40;35.40;;;;;;500611;237;1202;-46
2021/03/06 11:02:22;;;;;;;;;;;20.40;35.30;;;;;;500327;237;1099;-46
2021/03/06 11:04:23;;;;;;;;;;;20.50;35.30;;;;;;500497;237;1082;-46
2021/03/06 11:06:24;;;;;;;;;;;20.50;35.30;;;;;;500407;237;2207;-46
2021/03/06 11:08:26;;;;;;;;;;;20.50;35.20;;;;;;500489;237;1100;-46
2021/03/06 11:10:27;;;;;;;;;;;20.60;35.20;;;;;;500398;237;1159;-46
2021/03/06 11:12:30;;;;;;;;;;;20.60;35.10;;;;;;500259;237;1108;-46
2021/03/06 11:14:30;;;;;;;;;;;20.60;35.00;;;;;;500600;237;1422;-46
2021/03/06 11:16:31;;;;;;;;;;;20.70;35.00;;;;;;500332;237;1179;-46
2021/03/06 11:18:32;;;;;;;;;;;20.70;35.00;;;;;;500352;237;1007;-46
2021/03/06 11:20:34;;;;;;;;;;;20.70;34.90;;;;;;500334;237;1172;-46
2021/03/06 11:22:35;;;;;;;;;;;20.70;34.80;;;;;;500428;237;1059;-46
2021/03/06 11:24:36;;;;;;;;;;;20.70;34.80;;;;;;500410;237;1026;-46
2021/03/06 11:26:37;;;;;;;;;;;20.70;34.80;;;;;;500223;237;2183;-46
2021/03/06 11:28:39;;;;;;;;;;;20.80;34.80;;;;;;500342;237;1049;-45
2021/03/06 11:30:40;;;;;;;;;;;20.80;34.80;;;;;;500442;237;1178;-46
2021/03/06 11:32:41;;;;;;;;;;;20.80;34.70;;;;;;500326;237;1287;-46
2021/03/06 11:34:43;;;;;;;;;;;20.80;34.70;;;;;;500438;237;1078;-46
2021/03/06 11:36:44;;;;;;;;;;;20.80;34.70;;;;;;500292;237;1170;-45
2021/03/06 11:38:45;;;;;;;;;;;20.80;34.70;;;;;;500634;237;1094;-46
2021/03/06 11:40:46;;;;;;;;;;;20.90;34.70;;;;;;500394;237;1137;-46
2021/03/06 11:42:48;;;;;;;;;;;20.90;34.60;;;;;;500428;237;1143;-46
2021/03/06 11:44:49;;;;;;;;;;;20.90;34.60;;;;;;500626;237;2121;-46
2021/03/06 11:46:50;;;;;;;;;;;20.90;34.60;;;;;;500265;237;1217;-46
2021/03/06 11:48:52;;;;;;;;;;;20.90;34.50;;;;;;500300;237;1065;-46
2021/03/06 11:50:53;;;;;;;;;;;20.90;34.50;;;;;;500354;237;1403;-46
2021/03/06 11:52:54;;;;;;;;;;;21.00;34.50;;;;;;500461;237;1093;-46
2021/03/06 11:54:55;;;;;;;;;;;20.90;34.50;;;;;;500265;237;1044;-46
2021/03/06 11:56:57;;;;;;;;;;;21.00;34.50;;;;;;500289;237;1116;-46